Time,TemperatureF,DewpointF,PressureIn,WindDirection,WindDirectionDegrees,WindSpeedMPH,WindSpeedGustMPH,Humidity,HourlyPrecipIn,Conditions,Clouds,dailyrainin,SoftwareType,DateUTC
2013-01-16 00:02:00,63.0,63.0,30.06,SE,140,3.0,-999.0,100,0.00,,,-99.99,,2013-01-16 05:02:00,
2013-01-16 00:11:00,63.0,63.0,30.06,SE,140,3.0,-999.0,100,0.00,,,-99.99,,2013-01-16 05:11:00,
2013-01-16 00:22:00,63.0,63.0,30.06,SSE,150,5.0,-999.0,100,0.00,,,-99.99,,2013-01-16 05:22:00,
2013-01-16 00:32:00,64.0,64.0,30.06,South,170,5.0,-999.0,100,0.00,,,-99.99,,2013-01-16 05:32:00,
2013-01-16 00:42:00,64.0,64.0,30.06,South,170,5.0,-999.0,100,0.00,,,-99.99,,2013-01-16 05:42:00,
2013-01-16 00:52:00,64.0,64.0,30.06,South,170,5.0,-999.0,100,0.00,,,-99.99,,2013-01-16 05:52:00,
2013-01-16 01:02:00,64.0,64.0,30.06,South,170,5.0,-999.0,100,0.00,,,-99.99,,2013-01-16 06:02:00,
2013-01-16 01:11:00,64.0,64.0,30.06,South,170,5.0,-999.0,100,0.00,,,-99.99,,2013-01-16 06:11:00,
2013-01-16 01:21:00,64.0,64.0,30.06,SSW,210,3.0,-999.0,100,0.00,,,-99.99,,2013-01-16 06:21:00,
2013-01-16 01:32:00,64.0,64.0,30.06,SW,230,5.0,-999.0,100,0.00,,,-99.99,,2013-01-16 06:32:00,
2013-01-16 01:42:00,64.0,64.0,30.06,SW,230,5.0,-999.0,100,0.00,,,-99.99,,2013-01-16 06:42:00,
2013-01-16 01:52:00,64.0,64.0,30.06,SW,230,5.0,-999.0,100,0.00,,,-99.99,,2013-01-16 06:52:00,
2013-01-16 02:02:00,64.0,64.0,30.06,SW,230,5.0,-999.0,100,0.00,,,-99.99,,2013-01-16 07:02:00,
2013-01-16 02:11:00,64.0,64.0,30.06,SW,230,5.0,-999.0,100,0.00,,,-99.99,,2013-01-16 07:11:00,
2013-01-16 02:21:00,63.0,63.0,30.06,WSW,240,3.0,-999.0,100,0.00,,,-99.99,,2013-01-16 07:21:00,
2013-01-16 02:32:00,63.0,63.0,30.06,North,0,0.0,-999.0,100,0.00,,,-99.99,,2013-01-16 07:32:00,
2013-01-16 02:42:00,63.0,63.0,30.06,North,0,0.0,-999.0,100,0.00,,,-99.99,,2013-01-16 07:42:00,
2013-01-16 02:52:00,63.0,63.0,30.06,North,0,0.0,-999.0,100,0.00,,,-99.99,,2013-01-16 07:52:00,
2013-01-16 03:01:00,63.0,63.0,30.06,North,0,0.0,-999.0,100,0.00,,,-99.99,,2013-01-16 08:01:00,
2013-01-16 03:11:00,63.0,63.0,30.06,North,0,0.0,-999.0,100,0.00,,,-99.99,,2013-01-16 08:11:00,
2013-01-16 03:22:00,61.0,61.0,30.05,SSW,210,6.0,-999.0,100,0.00,,,-99.99,,2013-01-16 08:22:00,
2013-01-16 03:32:00,64.0,64.0,30.05,SSW,200,7.0,-999.0,100,0.00,,,-99.99,,2013-01-16 08:32:00,
2013-01-16 03:42:00,64.0,64.0,30.05,SSW,200,7.0,-999.0,100,0.00,,,-99.99,,2013-01-16 08:42:00,
2013-01-16 03:52:00,64.0,64.0,30.04,SSW,210,7.0,-999.0,100,0.00,,,-99.99,,2013-01-16 08:52:00,
2013-01-16 04:02:00,64.0,64.0,30.04,SSW,210,7.0,-999.0,100,0.00,,,-99.99,,2013-01-16 09:02:00,
2013-01-16 04:11:00,64.0,64.0,30.04,SSW,210,7.0,-999.0,100,0.00,,,-99.99,,2013-01-16 09:11:00,
2013-01-16 04:21:00,64.0,64.0,30.04,SSW,210,7.0,-999.0,100,0.00,,,-99.99,,2013-01-16 09:21:00,
2013-01-16 04:32:00,64.0,64.0,30.04,SW,220,7.0,-999.0,100,0.00,,,-99.99,,2013-01-16 09:32:00,
2013-01-16 04:42:00,64.0,64.0,30.04,SW,220,7.0,-999.0,100,0.00,,,-99.99,,2013-01-16 09:42:00,
2013-01-16 04:52:00,64.0,64.0,30.04,SSW,210,8.0,-999.0,100,0.00,,,-99.99,,2013-01-16 09:52:00,
2013-01-16 05:02:00,64.0,64.0,30.04,SSW,210,8.0,-999.0,100,0.00,,,-99.99,,2013-01-16 10:02:00,
2013-01-16 05:11:00,64.0,64.0,30.04,SSW,210,8.0,-999.0,100,0.00,,,-99.99,,2013-01-16 10:11:00,
2013-01-16 05:21:00,64.0,64.0,30.04,SSW,210,8.0,-999.0,100,0.00,,,-99.99,,2013-01-16 10:21:00,
2013-01-16 05:32:00,64.0,64.0,30.04,SSW,210,8.0,-999.0,100,0.00,,,-99.99,,2013-01-16 10:32:00,
2013-01-16 05:52:00,66.0,66.0,30.03,SW,230,9.0,-999.0,100,0.00,,,-99.99,,2013-01-16 10:52:00,
2013-01-16 06:01:00,66.0,66.0,30.03,SW,230,9.0,-999.0,100,0.00,,,-99.99,,2013-01-16 11:01:00,
2013-01-16 06:11:00,66.0,66.0,30.03,SW,230,9.0,-999.0,100,0.00,,,-99.99,,2013-01-16 11:11:00,
2013-01-16 06:22:00,66.0,66.0,30.04,SW,230,8.0,-999.0,100,0.00,,,-99.99,,2013-01-16 11:22:00,
2013-01-16 06:32:00,66.0,66.0,30.04,SW,230,6.0,-999.0,100,0.00,,,-99.99,,2013-01-16 11:32:00,
2013-01-16 06:42:00,66.0,66.0,30.04,SW,230,6.0,-999.0,100,0.00,,,-99.99,,2013-01-16 11:42:00,
2013-01-16 06:52:00,66.0,66.0,30.04,SW,230,6.0,-999.0,100,0.00,,,-99.99,,2013-01-16 11:52:00,
2013-01-16 07:02:00,66.0,66.0,30.04,SW,230,6.0,-999.0,100,0.00,,,-99.99,,2013-01-16 12:02:00,
2013-01-16 07:12:00,66.0,66.0,30.04,SW,230,6.0,-999.0,100,0.00,,,0.00,,2013-01-16 12:12:00,
2013-01-16 07:22:00,64.0,64.0,30.04,SW,230,7.0,-999.0,100,0.00,,,0.00,,2013-01-16 12:22:00,
2013-01-16 07:32:00,64.0,64.0,30.04,SW,230,7.0,-999.0,100,0.00,,,0.00,,2013-01-16 12:32:00,
2013-01-16 07:42:00,64.0,64.0,30.04,SW,230,7.0,-999.0,100,0.00,,,0.00,,2013-01-16 12:42:00,
2013-01-16 07:52:00,64.0,64.0,30.05,SW,230,8.0,-999.0,100,0.00,,,0.00,,2013-01-16 12:52:00,
2013-01-16 08:02:00,64.0,64.0,30.05,SW,230,8.0,-999.0,100,0.00,,,0.00,,2013-01-16 13:02:00,
2013-01-16 08:12:00,64.0,64.0,30.05,SW,230,8.0,-999.0,100,0.00,,,-99.99,,2013-01-16 13:12:00,
2013-01-16 08:22:00,64.0,64.0,30.06,SW,220,8.0,-999.0,100,0.00,,,-99.99,,2013-01-16 13:22:00,
2013-01-16 08:32:00,66.0,66.0,30.06,SW,220,7.0,-999.0,100,0.00,,,-99.99,,2013-01-16 13:32:00,
2013-01-16 08:42:00,66.0,66.0,30.06,SW,220,7.0,-999.0,100,0.00,,,-99.99,,2013-01-16 13:42:00,
2013-01-16 08:52:00,66.0,66.0,30.06,SW,220,7.0,-999.0,100,0.00,,,-99.99,,2013-01-16 13:52:00,
2013-01-16 09:02:00,66.0,66.0,30.06,SW,220,7.0,-999.0,100,0.00,,,-99.99,,2013-01-16 14:02:00,
2013-01-16 09:11:00,66.0,66.0,30.06,SW,220,7.0,-999.0,100,0.00,,,-99.99,,2013-01-16 14:11:00,
2013-01-16 09:21:00,68.0,66.0,30.07,SW,230,13.0,18.0,93,0.00,,,-99.99,,2013-01-16 14:21:00,
2013-01-16 09:32:00,70.0,66.0,30.08,SW,230,10.0,18.0,88,0.00,,,-99.99,,2013-01-16 14:32:00,
2013-01-16 09:42:00,70.0,66.0,30.08,SW,230,10.0,18.0,88,0.00,,,-99.99,,2013-01-16 14:42:00,
2013-01-16 09:52:00,70.0,66.0,30.08,SW,230,14.0,18.0,88,0.00,,,-99.99,,2013-01-16 14:52:00,
2013-01-16 10:02:00,70.0,66.0,30.08,SW,230,14.0,18.0,88,0.00,,,-99.99,,2013-01-16 15:02:00,
2013-01-16 10:11:00,70.0,66.0,30.08,SW,230,14.0,18.0,88,0.00,,,-99.99,,2013-01-16 15:11:00,
2013-01-16 10:21:00,72.0,66.0,30.08,WSW,240,14.0,20.0,83,0.00,,,-99.99,,2013-01-16 15:21:00,
2013-01-16 10:32:00,73.0,64.0,30.07,SW,230,10.0,20.0,73,0.00,,,-99.99,,2013-01-16 15:32:00,
2013-01-16 10:42:00,73.0,64.0,30.07,SW,230,10.0,20.0,73,0.00,,,-99.99,,2013-01-16 15:42:00,
2013-01-16 10:52:00,73.0,64.0,30.07,SW,220,9.0,20.0,73,0.00,,,-99.99,,2013-01-16 15:52:00,
2013-01-16 11:02:00,73.0,64.0,30.07,SW,220,9.0,20.0,73,0.00,,,-99.99,,2013-01-16 16:02:00,
2013-01-16 11:11:00,73.0,64.0,30.07,SW,220,9.0,20.0,73,0.00,,,-99.99,,2013-01-16 16:11:00,
2013-01-16 11:21:00,75.0,64.0,30.06,SW,230,18.0,22.0,69,0.00,,,-99.99,,2013-01-16 16:21:00,
2013-01-16 11:32:00,75.0,64.0,30.06,SW,230,18.0,22.0,69,0.00,,,-99.99,,2013-01-16 16:32:00,
2013-01-16 11:42:00,75.0,64.0,30.06,SW,230,18.0,20.0,69,0.00,,,-99.99,,2013-01-16 16:42:00,
2013-01-16 11:52:00,77.0,63.0,30.04,SW,230,17.0,20.0,61,0.00,,,-99.99,,2013-01-16 16:52:00,
2013-01-16 12:02:00,77.0,63.0,30.04,SW,230,17.0,20.0,61,0.00,,,-99.99,,2013-01-16 17:02:00,
2013-01-16 12:11:00,77.0,63.0,30.04,SW,230,17.0,-999.0,61,0.00,,,-99.99,,2013-01-16 17:11:00,
2013-01-16 12:22:00,77.0,63.0,30.03,SW,220,16.0,24.0,61,0.00,,,-99.99,,2013-01-16 17:22:00,
2013-01-16 12:32:00,79.0,63.0,30.02,SW,220,13.0,20.0,57,0.00,,,-99.99,,2013-01-16 17:32:00,
2013-01-16 12:42:00,79.0,63.0,30.02,SW,220,13.0,20.0,57,0.00,,,-99.99,,2013-01-16 17:42:00,
2013-01-16 12:52:00,79.0,63.0,30.02,SW,220,13.0,20.0,57,0.00,,,-99.99,,2013-01-16 17:52:00,
2013-01-16 13:02:00,79.0,63.0,30.02,SW,220,13.0,20.0,57,0.00,,,-99.99,,2013-01-16 18:02:00,
2013-01-16 13:12:00,79.0,63.0,30.02,SW,220,13.0,20.0,57,0.00,,,-99.99,,2013-01-16 18:12:00,
2013-01-16 13:32:00,79.0,63.0,29.99,SW,220,14.0,23.0,57,0.00,,,-99.99,,2013-01-16 18:32:00,
2013-01-16 13:42:00,79.0,63.0,29.99,SW,220,14.0,23.0,57,0.00,,,-99.99,,2013-01-16 18:42:00,
2013-01-16 13:52:00,79.0,63.0,29.99,SW,220,14.0,23.0,57,0.00,,,-99.99,,2013-01-16 18:52:00,
2013-01-16 14:01:00,79.0,63.0,29.99,SW,220,14.0,23.0,57,0.00,,,-99.99,,2013-01-16 19:01:00,
2013-01-16 14:11:00,79.0,63.0,29.99,SW,220,14.0,23.0,57,0.00,,,-99.99,,2013-01-16 19:11:00,
2013-01-16 14:22:00,79.0,63.0,29.98,SW,220,12.0,-999.0,57,0.00,,,-99.99,,2013-01-16 19:22:00,
2013-01-16 14:32:00,79.0,63.0,29.98,SSW,210,12.0,-999.0,57,0.00,,,-99.99,,2013-01-16 19:32:00,
2013-01-16 14:42:00,79.0,63.0,29.98,SSW,210,12.0,21.0,57,0.00,,,-99.99,,2013-01-16 19:42:00,
2013-01-16 14:52:00,79.0,63.0,29.98,SSW,210,12.0,21.0,57,0.00,,,-99.99,,2013-01-16 19:52:00,
2013-01-16 15:02:00,79.0,63.0,29.98,SSW,210,12.0,21.0,57,0.00,,,-99.99,,2013-01-16 20:02:00,
2013-01-16 15:11:00,79.0,63.0,29.98,SSW,210,12.0,18.0,57,0.00,,,-99.99,,2013-01-16 20:11:00,
2013-01-16 15:22:00,79.0,63.0,29.98,SSW,200,12.0,18.0,57,0.00,,,-99.99,,2013-01-16 20:22:00,
2013-01-16 15:32:00,79.0,63.0,29.98,SSW,210,9.0,18.0,57,0.00,,,-99.99,,2013-01-16 20:32:00,
2013-01-16 15:42:00,79.0,63.0,29.98,SSW,210,9.0,18.0,57,0.00,,,-99.99,,2013-01-16 20:42:00,
2013-01-16 15:52:00,77.0,63.0,29.98,SSW,210,12.0,17.0,61,0.00,,,-99.99,,2013-01-16 20:52:00,
2013-01-16 16:02:00,77.0,63.0,29.98,SSW,210,12.0,17.0,61,0.00,,,-99.99,,2013-01-16 21:02:00,
2013-01-16 16:11:00,77.0,63.0,29.98,SSW,210,12.0,17.0,61,0.00,,,-99.99,,2013-01-16 21:11:00,
2013-01-16 16:21:00,75.0,63.0,29.98,SSW,200,13.0,16.0,64,0.00,,,-99.99,,2013-01-16 21:21:00,
2013-01-16 16:32:00,75.0,63.0,29.98,SSW,200,13.0,16.0,64,0.00,,,-99.99,,2013-01-16 21:32:00,
2013-01-16 16:42:00,75.0,63.0,29.98,SSW,200,13.0,16.0,64,0.00,,,-99.99,,2013-01-16 21:42:00,
2013-01-16 16:52:00,75.0,63.0,29.99,SSW,210,10.0,17.0,64,0.00,,,-99.99,,2013-01-16 21:52:00,
2013-01-16 17:02:00,75.0,63.0,29.99,SSW,210,10.0,17.0,64,0.00,,,-99.99,,2013-01-16 22:02:00,
2013-01-16 17:11:00,75.0,63.0,29.99,SSW,210,10.0,-999.0,64,0.00,,,-99.99,,2013-01-16 22:11:00,
2013-01-16 17:22:00,73.0,61.0,29.99,SSW,210,10.0,17.0,64,0.00,,,-99.99,,2013-01-16 22:22:00,
2013-01-16 17:32:00,72.0,63.0,30.00,SW,220,9.0,-999.0,73,0.00,,,-99.99,,2013-01-16 22:32:00,
2013-01-16 17:42:00,72.0,63.0,30.00,SW,220,9.0,-999.0,73,0.00,,,-99.99,,2013-01-16 22:42:00,
2013-01-16 17:52:00,72.0,63.0,30.00,SSW,210,7.0,-999.0,73,0.00,,,-99.99,,2013-01-16 22:52:00,
2013-01-16 18:02:00,72.0,63.0,30.00,SSW,210,7.0,-999.0,73,0.00,,,-99.99,,2013-01-16 23:02:00,
2013-01-16 18:11:00,72.0,63.0,30.00,SSW,210,7.0,-999.0,73,0.00,,,-99.99,,2013-01-16 23:11:00,
2013-01-16 18:21:00,72.0,63.0,30.00,SSW,210,7.0,-999.0,73,0.00,,,-99.99,,2013-01-16 23:21:00,
2013-01-16 18:32:00,70.0,61.0,30.01,SSW,210,9.0,-999.0,73,0.00,,,-99.99,,2013-01-16 23:32:00,
2013-01-16 18:42:00,70.0,61.0,30.01,SSW,210,9.0,-999.0,73,0.00,,,-99.99,,2013-01-16 23:42:00,
2013-01-16 18:52:00,70.0,61.0,30.01,SSW,210,9.0,-999.0,73,0.00,,,-99.99,,2013-01-16 23:52:00,
2013-01-16 19:02:00,70.0,61.0,30.01,SSW,210,9.0,-999.0,73,0.00,,,-99.99,,2013-01-17 00:02:00,
2013-01-16 19:11:00,70.0,61.0,30.01,SSW,210,9.0,-999.0,73,0.00,,,-99.99,,2013-01-17 00:11:00,
2013-01-16 19:22:00,66.0,63.0,30.01,SSW,210,8.0,-999.0,88,0.00,,,-99.99,,2013-01-17 00:22:00,
2013-01-16 19:32:00,66.0,63.0,30.01,SSW,210,8.0,-999.0,88,0.00,,,-99.99,,2013-01-17 00:32:00,
2013-01-16 19:42:00,66.0,63.0,30.01,SSW,210,8.0,-999.0,88,0.00,,,-99.99,,2013-01-17 00:42:00,
2013-01-16 19:52:00,64.0,63.0,30.02,SW,220,6.0,-999.0,93,0.00,,,-99.99,,2013-01-17 00:52:00,
2013-01-16 20:01:00,64.0,63.0,30.02,SW,220,6.0,-999.0,93,0.00,,,-99.99,,2013-01-17 01:01:00,
2013-01-16 20:11:00,64.0,63.0,30.02,SW,220,6.0,-999.0,93,0.00,,,-99.99,,2013-01-17 01:11:00,
2013-01-16 20:21:00,64.0,63.0,30.02,SSW,210,7.0,-999.0,93,0.00,,,-99.99,,2013-01-17 01:21:00,
2013-01-16 20:32:00,64.0,64.0,30.02,SSW,210,7.0,-999.0,100,0.00,,,-99.99,,2013-01-17 01:32:00,
2013-01-16 20:42:00,64.0,64.0,30.02,SSW,210,7.0,-999.0,100,0.00,,,-99.99,,2013-01-17 01:42:00,
2013-01-16 20:52:00,64.0,64.0,30.02,SSW,210,7.0,-999.0,100,0.00,,,-99.99,,2013-01-17 01:52:00,
2013-01-16 21:01:00,64.0,64.0,30.02,SSW,210,7.0,-999.0,100,0.00,,,-99.99,,2013-01-17 02:01:00,
2013-01-16 21:11:00,64.0,64.0,30.02,SSW,210,7.0,-999.0,100,0.00,,,-99.99,,2013-01-17 02:11:00,
2013-01-16 21:21:00,64.0,64.0,30.02,SSW,210,8.0,-999.0,100,0.00,,,-99.99,,2013-01-17 02:21:00,
2013-01-16 21:32:00,64.0,64.0,30.02,SSW,210,8.0,-999.0,100,0.00,,,-99.99,,2013-01-17 02:32:00,
2013-01-16 21:42:00,64.0,64.0,30.02,SSW,210,8.0,-999.0,100,0.00,,,-99.99,,2013-01-17 02:42:00,
2013-01-16 21:52:00,64.0,64.0,30.02,SSW,210,8.0,-999.0,100,0.00,,,-99.99,,2013-01-17 02:52:00,
2013-01-16 22:02:00,64.0,64.0,30.01,SSW,210,10.0,-999.0,100,0.00,,,-99.99,,2013-01-17 03:02:00,
2013-01-16 22:11:00,64.0,64.0,30.01,SSW,210,10.0,-999.0,100,0.00,,,-99.99,,2013-01-17 03:11:00,
2013-01-16 22:21:00,64.0,64.0,30.01,SSW,210,10.0,-999.0,100,0.00,,,-99.99,,2013-01-17 03:21:00,
2013-01-16 22:32:00,64.0,64.0,30.01,SSW,210,9.0,-999.0,100,0.00,,,-99.99,,2013-01-17 03:32:00,
2013-01-16 22:42:00,64.0,64.0,30.01,SSW,210,9.0,-999.0,100,0.00,,,-99.99,,2013-01-17 03:42:00,
2013-01-16 22:52:00,64.0,64.0,30.01,SW,220,8.0,-999.0,100,0.00,,,-99.99,,2013-01-17 03:52:00,
2013-01-16 23:01:00,64.0,64.0,30.01,SW,220,8.0,-999.0,100,0.00,,,-99.99,,2013-01-17 04:01:00,
2013-01-16 23:11:00,64.0,64.0,30.01,SW,220,8.0,-999.0,100,0.00,,,-99.99,,2013-01-17 04:11:00,
2013-01-16 23:21:00,64.0,64.0,30.01,SW,220,8.0,-999.0,100,0.00,,,-99.99,,2013-01-17 04:21:00,
2013-01-16 23:32:00,64.0,64.0,30.01,SW,220,8.0,-999.0,100,0.00,,,-99.99,,2013-01-17 04:32:00,
2013-01-16 23:52:00,64.0,64.0,30.00,SW,230,6.0,-999.0,100,0.00,,,-99.99,,2013-01-17 04:52:00,